Terminal Aerodrome Forecast
Issued by NWS Huntsville, AL

Home | Current Version | Previous Version | Text Only | Print | Product List | Glossary On
Versions: 1 2 3 4 5 6 7 8 9 10 11 12 13 14 15 16 17 18 19 20 21 22 23 24 25
000
FTUS44 KHUN 271132
TAFMSL
TAF
KMSL 271132Z 2712/2812 11005KT P6SM VCSH BKN080
     FM271300 13009KT P6SM -RA OVC050
      TEMPO 2713/2717 5SM -SHRA BR BKN040
     FM272200 14010KT P6SM -DZ BKN030
     FM280600 15009KT P6SM OVC015
     FM280900 17010KT 6SM BR OVC009=

USA.gov is the U.S. government's official web portal to all federal, state and local government web resources and services.